createdAt,value
2022-12-01T00:02:12.666Z,18.37
2022-12-01T00:07:14.556Z,18.36
2022-12-01T00:12:16.416Z,18.44
2022-12-01T00:17:18.146Z,18.45
2022-12-01T00:22:20.671Z,18.35
2022-12-01T00:27:22.589Z,18.36
2022-12-01T00:32:24.946Z,18.37
2022-12-01T00:37:26.917Z,18.43
2022-12-01T00:42:29.172Z,18.43
2022-12-01T00:47:31.393Z,18.38
2022-12-01T00:52:33.236Z,18.37
2022-12-01T00:57:35.559Z,18.39
2022-12-01T01:02:39.411Z,18.32
2022-12-01T01:07:41.494Z,18.31
2022-12-01T01:12:43.589Z,18.36
2022-12-01T01:17:45.561Z,18.32
2022-12-01T01:22:47.563Z,18.32
2022-12-01T01:27:49.919Z,18.36
2022-12-01T01:32:51.723Z,18.32
2022-12-01T01:37:53.739Z,18.37
2022-12-01T01:42:56.068Z,18.32
2022-12-01T01:48:00.297Z,18.28
2022-12-01T01:53:05.682Z,18.40
2022-12-01T01:58:10.403Z,18.39
2022-12-01T02:03:15.818Z,18.34
2022-12-01T02:08:18.057Z,18.36
2022-12-01T02:13:44.125Z,18.34
2022-12-01T02:18:52.771Z,18.39
2022-12-01T02:24:12.749Z,18.34
2022-12-01T02:29:27.005Z,18.35
2022-12-01T02:34:45.177Z,18.38
2022-12-01T02:39:58.602Z,18.38
2022-12-01T02:45:06.122Z,18.39
2022-12-01T02:50:10.460Z,18.43
2022-12-01T02:55:13.850Z,18.38
2022-12-01T03:00:17.168Z,18.37
2022-12-01T03:05:29.104Z,18.36
2022-12-01T03:10:45.986Z,18.41
2022-12-01T03:16:15.861Z,18.40
2022-12-01T03:21:33.726Z,18.37
2022-12-01T03:26:37.063Z,18.37
2022-12-01T03:31:53.942Z,18.32
2022-12-01T03:37:01.272Z,18.42
2022-12-01T03:42:13.653Z,18.36
2022-12-01T03:47:21.040Z,18.44
2022-12-01T03:53:00.267Z,18.44
2022-12-01T03:58:09.460Z,18.41
2022-12-01T04:03:18.827Z,18.46
2022-12-01T04:08:20.707Z,18.41
2022-12-01T04:13:23.548Z,18.47
2022-12-01T04:18:25.628Z,18.46
2022-12-01T04:23:46.188Z,18.41
2022-12-01T04:28:49.187Z,18.37
2022-12-01T04:33:51.155Z,18.40
2022-12-01T04:38:53.353Z,18.42
2022-12-01T04:43:56.235Z,18.38
2022-12-01T04:48:58.288Z,18.35
2022-12-01T04:54:02.839Z,18.34
2022-12-01T04:59:04.847Z,18.44
2022-12-01T05:04:06.926Z,18.39
2022-12-01T05:09:16.871Z,18.39
2022-12-01T05:14:19.370Z,18.41
2022-12-01T05:19:39.723Z,18.40
2022-12-01T05:24:41.555Z,18.44
2022-12-01T05:29:43.451Z,18.43
2022-12-01T05:34:45.454Z,18.42
2022-12-01T05:39:48.084Z,18.36
2022-12-01T05:44:50.382Z,18.42
2022-12-01T05:49:52.605Z,18.43
2022-12-01T05:54:54.657Z,18.46
2022-12-01T05:59:56.697Z,18.40
2022-12-01T06:04:58.726Z,18.38
2022-12-01T06:10:00.861Z,18.43
2022-12-01T06:15:02.860Z,18.40
2022-12-01T06:20:05.521Z,18.44
2022-12-01T06:25:08.376Z,18.41
2022-12-01T06:30:10.882Z,18.40
2022-12-01T06:35:13.571Z,18.44
2022-12-01T06:40:15.561Z,18.38
2022-12-01T06:45:17.547Z,18.33
2022-12-01T06:50:20.698Z,18.35
2022-12-01T06:55:22.649Z,18.43
2022-12-01T07:00:24.831Z,18.42
2022-12-01T07:05:27.038Z,18.36
2022-12-01T07:10:29.151Z,18.41
2022-12-01T07:15:31.319Z,18.34
2022-12-01T07:20:33.323Z,18.41
2022-12-01T07:25:35.365Z,18.33
2022-12-01T07:30:37.340Z,18.47
2022-12-01T07:35:39.377Z,18.22
2022-12-01T07:40:41.399Z,18.28
2022-12-01T07:45:43.552Z,18.26
2022-12-01T07:50:45.584Z,18.27
2022-12-01T07:55:53.307Z,18.27
2022-12-01T08:00:55.108Z,18.24
2022-12-01T08:06:01.551Z,18.22
2022-12-01T08:11:06.145Z,18.04
2022-12-01T08:16:10.624Z,18.16
2022-12-01T08:21:15.289Z,18.16
2022-12-01T08:26:19.310Z,18.14
2022-12-01T08:31:33.459Z,18.15
2022-12-01T08:36:36.001Z,18.13
2022-12-01T08:41:37.923Z,18.15
2022-12-01T08:46:40.014Z,18.11
2022-12-01T08:51:42.320Z,18.12
2022-12-01T08:56:45.941Z,18.10
2022-12-01T09:01:53.979Z,18.11
2022-12-01T09:06:57.607Z,18.10
2022-12-01T09:11:59.585Z,18.11
2022-12-01T09:17:01.685Z,18.11
2022-12-01T09:22:03.640Z,18.13
2022-12-01T09:27:05.982Z,18.17
2022-12-01T09:32:08.283Z,18.11
2022-12-01T09:37:10.285Z,18.12
2022-12-01T09:42:16.488Z,18.11
2022-12-01T09:47:31.066Z,18.11
2022-12-01T09:52:43.352Z,18.08
2022-12-01T09:57:49.279Z,18.13
2022-12-01T10:02:51.226Z,18.13
2022-12-01T10:07:59.054Z,18.10
2022-12-01T10:13:01.352Z,18.11
2022-12-01T10:18:12.990Z,18.13
2022-12-01T10:23:52.472Z,18.10
2022-12-01T10:29:33.063Z,18.12
2022-12-01T10:34:38.627Z,18.18
2022-12-01T10:39:44.289Z,18.20
2022-12-01T10:44:46.985Z,18.12
2022-12-01T10:49:49.437Z,18.12
2022-12-01T10:54:51.558Z,18.13
2022-12-01T10:59:58.104Z,18.08
2022-12-01T11:05:04.719Z,18.10
2022-12-01T11:10:15.174Z,18.09
2022-12-01T11:15:27.576Z,18.13
2022-12-01T11:20:36.460Z,18.10
2022-12-01T11:25:38.602Z,18.13
2022-12-01T11:30:40.845Z,17.93
2022-12-01T11:35:48.218Z,17.95
2022-12-01T11:40:54.262Z,18.05
2022-12-01T11:45:58.829Z,18.05
2022-12-01T11:51:05.742Z,18.05
2022-12-01T11:56:19.083Z,18.06
2022-12-01T12:01:39.468Z,18.07
2022-12-01T12:06:44.034Z,18.08
2022-12-01T12:12:20.907Z,18.05
2022-12-01T12:17:47.742Z,18.06
2022-12-01T12:23:07.788Z,18.04
2022-12-01T12:28:34.997Z,18.01
2022-12-01T12:34:33.877Z,18.05
2022-12-01T12:40:07.475Z,18.00
2022-12-01T12:45:36.154Z,18.07
2022-12-01T12:51:05.852Z,18.04
2022-12-01T12:56:14.207Z,17.75
2022-12-01T13:01:21.456Z,17.77
2022-12-01T13:06:28.815Z,17.76
2022-12-01T13:11:36.448Z,17.70
2022-12-01T13:16:43.542Z,17.69
2022-12-01T13:21:48.680Z,17.74
2022-12-01T13:26:56.643Z,17.78
2022-12-01T13:31:58.637Z,17.79
2022-12-01T13:37:00.754Z,18.19
2022-12-01T13:42:07.372Z,18.36
2022-12-01T13:47:12.161Z,18.35
2022-12-01T13:52:22.954Z,18.29
2022-12-01T13:57:27.992Z,18.23
2022-12-01T14:02:38.706Z,18.37
2022-12-01T14:07:40.837Z,18.26
2022-12-01T14:12:46.006Z,18.19
2022-12-01T14:17:48.363Z,18.20
2022-12-01T14:23:36.358Z,18.15
2022-12-01T14:29:23.902Z,18.12
2022-12-01T14:34:29.209Z,18.16
2022-12-01T14:40:04.466Z,18.11
2022-12-01T14:45:11.164Z,18.13
2022-12-01T14:50:25.014Z,18.12
2022-12-01T14:55:33.554Z,18.07
2022-12-01T15:00:38.005Z,18.10
2022-12-01T15:05:42.771Z,18.16
2022-12-01T15:10:54.042Z,18.09
2022-12-01T15:16:13.822Z,18.05
2022-12-01T15:21:21.496Z,18.08
2022-12-01T15:26:26.558Z,17.56
2022-12-01T15:31:28.761Z,17.50
2022-12-01T15:36:30.970Z,17.69
2022-12-01T15:41:35.989Z,17.61
2022-12-01T15:46:37.959Z,17.74
2022-12-01T15:51:39.897Z,17.93
2022-12-01T15:56:41.912Z,18.19
2022-12-01T16:01:45.233Z,18.18
2022-12-01T16:07:05.855Z,18.22
2022-12-01T16:12:16.716Z,18.24
2022-12-01T16:17:18.420Z,18.27
2022-12-01T16:22:22.775Z,18.21
2022-12-01T16:27:32.136Z,18.18
2022-12-01T16:32:38.557Z,18.20
2022-12-01T16:37:40.296Z,18.12
2022-12-01T16:42:42.325Z,18.13
2022-12-01T16:47:46.358Z,18.13
2022-12-01T16:52:48.409Z,18.16
2022-12-01T16:57:50.298Z,18.16
2022-12-01T17:02:53.001Z,18.16
2022-12-01T17:07:55.061Z,18.18
2022-12-01T17:12:57.384Z,18.14
2022-12-01T17:17:59.552Z,18.10
2022-12-01T17:23:01.669Z,18.16
2022-12-01T17:28:03.778Z,18.11
2022-12-01T17:33:05.645Z,18.11
2022-12-01T17:38:07.770Z,18.12
2022-12-01T17:43:09.925Z,18.11
2022-12-01T17:48:11.792Z,18.11
2022-12-01T17:53:13.561Z,18.13
2022-12-01T17:58:18.218Z,18.13
2022-12-01T18:03:21.486Z,18.10
2022-12-01T18:08:25.443Z,18.02
2022-12-01T18:13:27.217Z,18.00
2022-12-01T18:18:29.161Z,18.14
2022-12-01T18:23:31.283Z,18.06
2022-12-01T18:28:34.137Z,18.07
2022-12-01T18:33:38.306Z,18.06
2022-12-01T18:38:41.088Z,18.03
2022-12-01T18:43:43.201Z,18.11
2022-12-01T18:48:46.615Z,18.06
2022-12-01T18:53:48.708Z,18.10
2022-12-01T18:58:58.018Z,18.02
2022-12-01T19:04:00.767Z,18.08
2022-12-01T19:09:05.606Z,18.04
2022-12-01T19:14:08.526Z,18.06
2022-12-01T19:19:10.485Z,18.05
2022-12-01T19:24:12.865Z,18.10
2022-12-01T19:29:14.831Z,18.08
2022-12-01T19:34:16.821Z,18.02
2022-12-01T19:39:18.669Z,18.08
2022-12-01T19:44:20.440Z,18.06
2022-12-01T19:49:22.655Z,18.07
2022-12-01T19:54:24.545Z,18.06
2022-12-01T19:59:26.613Z,18.05
2022-12-01T20:04:28.725Z,18.05
2022-12-01T20:09:30.991Z,18.02
2022-12-01T20:14:33.097Z,18.06
2022-12-01T20:19:35.077Z,18.04
2022-12-01T20:24:39.831Z,18.06
2022-12-01T20:29:41.969Z,18.06
2022-12-01T20:34:43.811Z,18.06
2022-12-01T20:39:45.798Z,18.12
2022-12-01T20:44:49.076Z,18.04
2022-12-01T20:49:55.500Z,18.01
2022-12-01T20:55:00.321Z,18.11
2022-12-01T21:00:02.233Z,18.11
2022-12-01T21:05:04.293Z,18.17
2022-12-01T21:10:06.531Z,18.19
2022-12-01T21:15:29.493Z,18.13
2022-12-01T21:20:36.478Z,18.15
2022-12-01T21:25:40.064Z,18.12
2022-12-01T21:30:42.092Z,18.08
2022-12-01T21:35:44.541Z,18.15
2022-12-01T21:40:47.504Z,18.10
2022-12-01T21:46:13.866Z,18.08
2022-12-01T21:51:23.502Z,18.10
2022-12-01T21:56:28.050Z,18.07
2022-12-01T22:01:31.708Z,18.12
2022-12-01T22:06:40.651Z,18.07
2022-12-01T22:11:45.042Z,18.07
2022-12-01T22:16:53.166Z,18.03
2022-12-01T22:22:16.496Z,18.03
2022-12-01T22:27:39.305Z,18.02
2022-12-01T22:32:49.508Z,18.08
2022-12-01T22:38:11.883Z,18.01
2022-12-01T22:43:16.604Z,18.00
2022-12-01T22:48:27.793Z,18.02
2022-12-01T22:53:31.437Z,18.00
2022-12-01T22:58:41.087Z,18.08
2022-12-01T23:03:43.010Z,18.11
2022-12-01T23:08:44.799Z,18.05
2022-12-01T23:13:46.585Z,18.05
2022-12-01T23:18:48.582Z,18.04
2022-12-01T23:23:50.582Z,17.97
2022-12-01T23:28:52.911Z,18.09
2022-12-01T23:33:54.844Z,18.06
2022-12-01T23:39:01.720Z,18.04
2022-12-01T23:44:23.853Z,18.02
2022-12-01T23:49:33.395Z,17.98
2022-12-01T23:54:38.229Z,18.04
2022-12-01T23:59:40.406Z,18.05
